sensor_id;sensor_type;location;lat;lon;timestamp;temperature;humidity
53498;DHT22;39382;47.168;16.008;2022-08-03T00:01:35;18.90;99.90
53498;DHT22;39382;47.168;16.008;2022-08-03T00:04:01;18.90;99.90
53498;DHT22;39382;47.168;16.008;2022-08-03T00:06:27;18.80;99.90
53498;DHT22;39382;47.168;16.008;2022-08-03T00:08:52;18.80;99.90
53498;DHT22;39382;47.168;16.008;2022-08-03T00:11:18;18.80;99.90
53498;DHT22;39382;47.168;16.008;2022-08-03T00:13:44;18.70;99.90
53498;DHT22;39382;47.168;16.008;2022-08-03T00:16:10;18.60;99.90
53498;DHT22;39382;47.168;16.008;2022-08-03T00:18:36;18.50;99.90
53498;DHT22;39382;47.168;16.008;2022-08-03T00:21:03;18.40;99.90
53498;DHT22;39382;47.168;16.008;2022-08-03T00:23:28;18.40;99.90
53498;DHT22;39382;47.168;16.008;2022-08-03T00:25:54;18.40;99.90
53498;DHT22;39382;47.168;16.008;2022-08-03T00:28:20;18.40;99.90
53498;DHT22;39382;47.168;16.008;2022-08-03T00:30:46;18.40;99.90
53498;DHT22;39382;47.168;16.008;2022-08-03T00:33:12;18.40;99.90
53498;DHT22;39382;47.168;16.008;2022-08-03T00:35:37;18.30;99.90
53498;DHT22;39382;47.168;16.008;2022-08-03T00:38:03;18.30;99.90
53498;DHT22;39382;47.168;16.008;2022-08-03T00:40:29;18.30;99.90
53498;DHT22;39382;47.168;16.008;2022-08-03T00:42:57;18.20;99.90
53498;DHT22;39382;47.168;16.008;2022-08-03T00:45:31;18.20;99.90
53498;DHT22;39382;47.168;16.008;2022-08-03T00:47:58;18.20;99.90
53498;DHT22;39382;47.168;16.008;2022-08-03T00:50:25;18.10;99.90
53498;DHT22;39382;47.168;16.008;2022-08-03T00:52:52;18.10;99.90
53498;DHT22;39382;47.168;16.008;2022-08-03T00:55:18;18.10;99.90
53498;DHT22;39382;47.168;16.008;2022-08-03T00:57:44;18.00;99.90
53498;DHT22;39382;47.168;16.008;2022-08-03T01:00:12;18.10;99.90
53498;DHT22;39382;47.168;16.008;2022-08-03T01:02:39;18.00;99.90
53498;DHT22;39382;47.168;16.008;2022-08-03T01:05:06;17.90;99.90
53498;DHT22;39382;47.168;16.008;2022-08-03T01:16:37;17.90;99.90
53498;DHT22;39382;47.168;16.008;2022-08-03T01:27:49;17.80;99.90
53498;DHT22;39382;47.168;16.008;2022-08-03T01:30:16;17.80;99.90
53498;DHT22;39382;47.168;16.008;2022-08-03T01:32:54;17.70;99.90
53498;DHT22;39382;47.168;16.008;2022-08-03T01:35:35;17.70;99.90
53498;DHT22;39382;47.168;16.008;2022-08-03T01:38:06;17.70;99.90
53498;DHT22;39382;47.168;16.008;2022-08-03T01:40:35;17.70;99.90
53498;DHT22;39382;47.168;16.008;2022-08-03T01:43:03;17.70;99.90
53498;DHT22;39382;47.168;16.008;2022-08-03T01:45:31;17.70;99.90
53498;DHT22;39382;47.168;16.008;2022-08-03T01:47:58;17.70;99.90
53498;DHT22;39382;47.168;16.008;2022-08-03T01:50:28;17.70;99.90
53498;DHT22;39382;47.168;16.008;2022-08-03T01:52:55;17.70;99.90
53498;DHT22;39382;47.168;16.008;2022-08-03T01:55:22;17.70;99.90
53498;DHT22;39382;47.168;16.008;2022-08-03T01:57:50;17.70;99.90
53498;DHT22;39382;47.168;16.008;2022-08-03T02:00:17;17.70;99.90
53498;DHT22;39382;47.168;16.008;2022-08-03T02:02:46;17.70;99.90
53498;DHT22;39382;47.168;16.008;2022-08-03T02:05:14;17.70;99.90
53498;DHT22;39382;47.168;16.008;2022-08-03T02:07:42;17.70;99.90
53498;DHT22;39382;47.168;16.008;2022-08-03T02:10:09;17.70;99.90
53498;DHT22;39382;47.168;16.008;2022-08-03T02:12:36;17.70;99.90
53498;DHT22;39382;47.168;16.008;2022-08-03T02:15:03;17.70;99.90
53498;DHT22;39382;47.168;16.008;2022-08-03T02:17:31;17.70;99.90
53498;DHT22;39382;47.168;16.008;2022-08-03T02:19:59;17.70;99.90
53498;DHT22;39382;47.168;16.008;2022-08-03T02:22:26;17.70;99.90
53498;DHT22;39382;47.168;16.008;2022-08-03T02:24:52;17.70;99.90
53498;DHT22;39382;47.168;16.008;2022-08-03T02:27:26;17.70;99.90
53498;DHT22;39382;47.168;16.008;2022-08-03T02:30:07;17.70;99.90
53498;DHT22;39382;47.168;16.008;2022-08-03T02:32:36;17.70;99.90
53498;DHT22;39382;47.168;16.008;2022-08-03T02:35:05;17.70;99.90
53498;DHT22;39382;47.168;16.008;2022-08-03T02:37:35;17.60;99.90
53498;DHT22;39382;47.168;16.008;2022-08-03T02:40:03;17.60;99.90
53498;DHT22;39382;47.168;16.008;2022-08-03T02:42:32;17.60;99.90
53498;DHT22;39382;47.168;16.008;2022-08-03T02:45:02;17.70;99.90
53498;DHT22;39382;47.168;16.008;2022-08-03T02:47:30;17.70;99.90
53498;DHT22;39382;47.168;16.008;2022-08-03T02:49:57;17.70;99.90
53498;DHT22;39382;47.168;16.008;2022-08-03T02:52:27;17.70;99.90
53498;DHT22;39382;47.168;16.008;2022-08-03T02:54:58;17.70;99.90
53498;DHT22;39382;47.168;16.008;2022-08-03T02:57:26;17.70;99.90
53498;DHT22;39382;47.168;16.008;2022-08-03T02:59:52;17.70;99.90
53498;DHT22;39382;47.168;16.008;2022-08-03T03:02:20;17.60;99.90
53498;DHT22;39382;47.168;16.008;2022-08-03T03:04:49;17.60;99.90
53498;DHT22;39382;47.168;16.008;2022-08-03T03:07:17;17.60;99.90
53498;DHT22;39382;47.168;16.008;2022-08-03T03:09:43;17.70;99.90
53498;DHT22;39382;47.168;16.008;2022-08-03T03:12:11;17.70;99.90
53498;DHT22;39382;47.168;16.008;2022-08-03T03:14:38;17.70;99.90
53498;DHT22;39382;47.168;16.008;2022-08-03T03:17:05;17.70;99.90
53498;DHT22;39382;47.168;16.008;2022-08-03T03:19:33;17.70;99.90
53498;DHT22;39382;47.168;16.008;2022-08-03T03:22:00;17.70;99.90
53498;DHT22;39382;47.168;16.008;2022-08-03T03:24:28;17.70;99.90
53498;DHT22;39382;47.168;16.008;2022-08-03T03:26:55;17.70;99.90
53498;DHT22;39382;47.168;16.008;2022-08-03T03:29:21;17.60;99.90
53498;DHT22;39382;47.168;16.008;2022-08-03T03:31:47;17.60;99.90
53498;DHT22;39382;47.168;16.008;2022-08-03T03:34:14;17.60;99.90
53498;DHT22;39382;47.168;16.008;2022-08-03T03:36:40;17.50;99.90
53498;DHT22;39382;47.168;16.008;2022-08-03T03:39:06;17.50;99.90
53498;DHT22;39382;47.168;16.008;2022-08-03T03:41:31;17.50;99.90
53498;DHT22;39382;47.168;16.008;2022-08-03T03:43:58;17.50;99.90
53498;DHT22;39382;47.168;16.008;2022-08-03T03:46:24;17.60;99.90
53498;DHT22;39382;47.168;16.008;2022-08-03T03:48:50;17.60;99.90
53498;DHT22;39382;47.168;16.008;2022-08-03T03:51:16;17.60;99.90
53498;DHT22;39382;47.168;16.008;2022-08-03T03:53:58;17.60;99.90
53498;DHT22;39382;47.168;16.008;2022-08-03T03:56:24;17.70;99.90
53498;DHT22;39382;47.168;16.008;2022-08-03T03:58:50;17.70;99.90
53498;DHT22;39382;47.168;16.008;2022-08-03T04:01:16;17.70;99.90
53498;DHT22;39382;47.168;16.008;2022-08-03T04:03:42;17.80;99.90
53498;DHT22;39382;47.168;16.008;2022-08-03T04:06:08;17.80;99.90
53498;DHT22;39382;47.168;16.008;2022-08-03T04:08:52;17.90;99.90
53498;DHT22;39382;47.168;16.008;2022-08-03T04:11:39;17.80;99.90
53498;DHT22;39382;47.168;16.008;2022-08-03T04:14:10;17.90;99.90
53498;DHT22;39382;47.168;16.008;2022-08-03T04:16:43;17.90;99.90
53498;DHT22;39382;47.168;16.008;2022-08-03T04:19:33;18.40;99.90
53498;DHT22;39382;47.168;16.008;2022-08-03T04:22:03;18.60;99.90
53498;DHT22;39382;47.168;16.008;2022-08-03T04:24:33;19.00;99.90
53498;DHT22;39382;47.168;16.008;2022-08-03T04:27:02;19.40;99.90
53498;DHT22;39382;47.168;16.008;2022-08-03T04:29:30;19.70;99.90
53498;DHT22;39382;47.168;16.008;2022-08-03T04:31:58;20.10;99.90
53498;DHT22;39382;47.168;16.008;2022-08-03T04:34:26;20.00;99.90
53498;DHT22;39382;47.168;16.008;2022-08-03T04:36:53;20.00;99.90
53498;DHT22;39382;47.168;16.008;2022-08-03T04:39:23;20.10;99.90
53498;DHT22;39382;47.168;16.008;2022-08-03T04:41:57;20.00;99.90
53498;DHT22;39382;47.168;16.008;2022-08-03T04:44:23;20.00;99.90
53498;DHT22;39382;47.168;16.008;2022-08-03T04:46:50;20.00;99.90
53498;DHT22;39382;47.168;16.008;2022-08-03T04:49:17;19.90;99.90
53498;DHT22;39382;47.168;16.008;2022-08-03T04:51:44;19.70;99.90
53498;DHT22;39382;47.168;16.008;2022-08-03T04:54:13;19.90;99.90
53498;DHT22;39382;47.168;16.008;2022-08-03T04:56:41;19.90;99.90
53498;DHT22;39382;47.168;16.008;2022-08-03T04:59:07;20.10;99.90
53498;DHT22;39382;47.168;16.008;2022-08-03T05:01:33;20.10;99.90
53498;DHT22;39382;47.168;16.008;2022-08-03T05:03:59;20.10;99.90
53498;DHT22;39382;47.168;16.008;2022-08-03T05:06:25;20.10;99.90
53498;DHT22;39382;47.168;16.008;2022-08-03T05:08:51;20.10;99.90
53498;DHT22;39382;47.168;16.008;2022-08-03T05:11:17;20.10;99.90
53498;DHT22;39382;47.168;16.008;2022-08-03T05:13:43;20.20;99.90
53498;DHT22;39382;47.168;16.008;2022-08-03T05:16:09;20.20;99.90
53498;DHT22;39382;47.168;16.008;2022-08-03T05:18:36;20.20;99.90
53498;DHT22;39382;47.168;16.008;2022-08-03T05:21:02;20.20;99.90
53498;DHT22;39382;47.168;16.008;2022-08-03T05:23:28;20.30;99.90
53498;DHT22;39382;47.168;16.008;2022-08-03T05:25:56;20.40;99.90
53498;DHT22;39382;47.168;16.008;2022-08-03T05:28:22;20.50;99.90
53498;DHT22;39382;47.168;16.008;2022-08-03T05:30:47;20.60;99.90
53498;DHT22;39382;47.168;16.008;2022-08-03T05:33:13;20.70;99.90
53498;DHT22;39382;47.168;16.008;2022-08-03T05:35:39;20.70;99.90
53498;DHT22;39382;47.168;16.008;2022-08-03T05:38:05;20.70;99.90
53498;DHT22;39382;47.168;16.008;2022-08-03T05:40:31;20.80;99.90
53498;DHT22;39382;47.168;16.008;2022-08-03T05:42:57;20.90;99.90
53498;DHT22;39382;47.168;16.008;2022-08-03T05:45:23;21.00;99.90
53498;DHT22;39382;47.168;16.008;2022-08-03T05:47:49;21.00;99.90
53498;DHT22;39382;47.168;16.008;2022-08-03T05:50:18;21.10;99.90
53498;DHT22;39382;47.168;16.008;2022-08-03T05:52:44;21.20;99.90
53498;DHT22;39382;47.168;16.008;2022-08-03T05:55:11;21.00;99.90
53498;DHT22;39382;47.168;16.008;2022-08-03T05:57:38;21.00;99.90
53498;DHT22;39382;47.168;16.008;2022-08-03T06:00:09;21.10;99.90
53498;DHT22;39382;47.168;16.008;2022-08-03T06:02:35;21.30;99.90
53498;DHT22;39382;47.168;16.008;2022-08-03T06:05:01;21.50;99.90
53498;DHT22;39382;47.168;16.008;2022-08-03T06:07:27;21.80;99.90
53498;DHT22;39382;47.168;16.008;2022-08-03T06:09:52;21.90;99.90
53498;DHT22;39382;47.168;16.008;2022-08-03T06:12:18;22.00;99.90
53498;DHT22;39382;47.168;16.008;2022-08-03T06:14:44;22.10;99.90
53498;DHT22;39382;47.168;16.008;2022-08-03T06:17:10;22.20;99.90
53498;DHT22;39382;47.168;16.008;2022-08-03T06:19:36;22.40;99.90
53498;DHT22;39382;47.168;16.008;2022-08-03T06:22:02;22.40;99.90
53498;DHT22;39382;47.168;16.008;2022-08-03T06:24:27;22.60;99.90
53498;DHT22;39382;47.168;16.008;2022-08-03T06:26:53;22.70;99.90
53498;DHT22;39382;47.168;16.008;2022-08-03T06:29:19;22.90;99.90
53498;DHT22;39382;47.168;16.008;2022-08-03T06:31:44;22.90;99.90
53498;DHT22;39382;47.168;16.008;2022-08-03T06:34:10;23.00;99.90
53498;DHT22;39382;47.168;16.008;2022-08-03T06:36:36;23.10;99.90
53498;DHT22;39382;47.168;16.008;2022-08-03T06:39:02;23.10;99.90
53498;DHT22;39382;47.168;16.008;2022-08-03T06:41:28;23.20;99.90
53498;DHT22;39382;47.168;16.008;2022-08-03T06:43:54;23.20;99.90
53498;DHT22;39382;47.168;16.008;2022-08-03T06:46:20;23.20;99.90
53498;DHT22;39382;47.168;16.008;2022-08-03T06:48:45;23.40;99.90
53498;DHT22;39382;47.168;16.008;2022-08-03T06:51:11;23.60;99.90
53498;DHT22;39382;47.168;16.008;2022-08-03T06:53:37;23.70;99.90
53498;DHT22;39382;47.168;16.008;2022-08-03T06:56:06;23.70;99.90
53498;DHT22;39382;47.168;16.008;2022-08-03T06:58:32;23.60;99.40
53498;DHT22;39382;47.168;16.008;2022-08-03T07:00:57;23.60;99.90
53498;DHT22;39382;47.168;16.008;2022-08-03T07:03:23;23.50;99.90
53498;DHT22;39382;47.168;16.008;2022-08-03T07:05:49;23.40;99.90
53498;DHT22;39382;47.168;16.008;2022-08-03T07:08:16;23.30;99.90
53498;DHT22;39382;47.168;16.008;2022-08-03T07:10:43;23.40;99.90
53498;DHT22;39382;47.168;16.008;2022-08-03T07:13:08;23.60;99.90
53498;DHT22;39382;47.168;16.008;2022-08-03T07:15:34;23.60;99.90
53498;DHT22;39382;47.168;16.008;2022-08-03T07:18:00;23.70;99.90
53498;DHT22;39382;47.168;16.008;2022-08-03T07:20:26;23.70;99.90
53498;DHT22;39382;47.168;16.008;2022-08-03T07:22:52;23.90;99.40
53498;DHT22;39382;47.168;16.008;2022-08-03T07:25:18;24.00;99.00
53498;DHT22;39382;47.168;16.008;2022-08-03T07:27:45;24.10;98.70
53498;DHT22;39382;47.168;16.008;2022-08-03T07:30:12;24.20;96.40
53498;DHT22;39382;47.168;16.008;2022-08-03T07:32:38;24.40;97.70
53498;DHT22;39382;47.168;16.008;2022-08-03T07:35:04;24.30;97.70
53498;DHT22;39382;47.168;16.008;2022-08-03T07:37:31;24.50;97.50
53498;DHT22;39382;47.168;16.008;2022-08-03T07:40:01;24.80;96.90
53498;DHT22;39382;47.168;16.008;2022-08-03T07:42:27;25.30;95.60
53498;DHT22;39382;47.168;16.008;2022-08-03T07:44:54;25.60;91.00
53498;DHT22;39382;47.168;16.008;2022-08-03T07:47:24;26.00;90.80
53498;DHT22;39382;47.168;16.008;2022-08-03T07:49:50;26.30;90.50
53498;DHT22;39382;47.168;16.008;2022-08-03T07:52:16;26.50;90.10
53498;DHT22;39382;47.168;16.008;2022-08-03T07:55:00;26.60;87.10
53498;DHT22;39382;47.168;16.008;2022-08-03T07:57:26;26.80;85.80
53498;DHT22;39382;47.168;16.008;2022-08-03T07:59:52;26.80;86.10
53498;DHT22;39382;47.168;16.008;2022-08-03T08:02:17;26.80;83.20
53498;DHT22;39382;47.168;16.008;2022-08-03T08:04:43;26.90;84.80
53498;DHT22;39382;47.168;16.008;2022-08-03T08:07:08;27.00;84.80
53498;DHT22;39382;47.168;16.008;2022-08-03T08:09:34;27.10;84.20
53498;DHT22;39382;47.168;16.008;2022-08-03T08:12:00;27.20;85.00
53498;DHT22;39382;47.168;16.008;2022-08-03T08:14:25;27.30;83.10
53498;DHT22;39382;47.168;16.008;2022-08-03T08:16:51;27.40;82.50
53498;DHT22;39382;47.168;16.008;2022-08-03T08:19:17;27.20;80.70
53498;DHT22;39382;47.168;16.008;2022-08-03T08:21:43;27.30;81.90
53498;DHT22;39382;47.168;16.008;2022-08-03T08:24:08;27.40;80.00
53498;DHT22;39382;47.168;16.008;2022-08-03T08:26:35;27.40;79.90
53498;DHT22;39382;47.168;16.008;2022-08-03T08:29:00;27.50;78.90
53498;DHT22;39382;47.168;16.008;2022-08-03T08:31:26;27.50;78.40
53498;DHT22;39382;47.168;16.008;2022-08-03T08:33:52;27.60;77.50
53498;DHT22;39382;47.168;16.008;2022-08-03T08:36:17;27.60;77.30
53498;DHT22;39382;47.168;16.008;2022-08-03T08:38:43;27.70;77.50
53498;DHT22;39382;47.168;16.008;2022-08-03T08:41:13;27.70;76.70
53498;DHT22;39382;47.168;16.008;2022-08-03T08:43:39;27.80;75.20
53498;DHT22;39382;47.168;16.008;2022-08-03T08:46:06;27.90;74.70
53498;DHT22;39382;47.168;16.008;2022-08-03T08:48:35;28.00;73.50
53498;DHT22;39382;47.168;16.008;2022-08-03T08:51:04;28.00;72.50
53498;DHT22;39382;47.168;16.008;2022-08-03T08:53:30;28.10;74.80
53498;DHT22;39382;47.168;16.008;2022-08-03T08:56:01;28.30;72.00
53498;DHT22;39382;47.168;16.008;2022-08-03T08:58:29;28.40;73.50
53498;DHT22;39382;47.168;16.008;2022-08-03T09:00:59;28.50;72.80
53498;DHT22;39382;47.168;16.008;2022-08-03T09:03:25;28.50;70.50
53498;DHT22;39382;47.168;16.008;2022-08-03T09:05:51;28.50;71.40
53498;DHT22;39382;47.168;16.008;2022-08-03T09:08:17;28.50;70.90
53498;DHT22;39382;47.168;16.008;2022-08-03T09:10:43;28.60;72.50
53498;DHT22;39382;47.168;16.008;2022-08-03T09:13:09;28.70;72.40
53498;DHT22;39382;47.168;16.008;2022-08-03T09:15:34;28.70;68.20
53498;DHT22;39382;47.168;16.008;2022-08-03T09:18:02;28.70;70.80
53498;DHT22;39382;47.168;16.008;2022-08-03T09:20:33;28.70;70.10
53498;DHT22;39382;47.168;16.008;2022-08-03T09:23:04;28.70;69.00
53498;DHT22;39382;47.168;16.008;2022-08-03T09:25:38;28.70;64.10
53498;DHT22;39382;47.168;16.008;2022-08-03T09:28:16;28.70;66.90
53498;DHT22;39382;47.168;16.008;2022-08-03T09:30:57;28.80;65.70
53498;DHT22;39382;47.168;16.008;2022-08-03T09:33:23;28.90;65.80
53498;DHT22;39382;47.168;16.008;2022-08-03T09:35:49;29.00;67.40
53498;DHT22;39382;47.168;16.008;2022-08-03T09:38:20;29.10;68.70
53498;DHT22;39382;47.168;16.008;2022-08-03T09:40:51;29.10;65.00
53498;DHT22;39382;47.168;16.008;2022-08-03T09:43:17;29.20;67.80
53498;DHT22;39382;47.168;16.008;2022-08-03T09:45:43;29.30;68.90
53498;DHT22;39382;47.168;16.008;2022-08-03T09:48:28;29.30;69.00
53498;DHT22;39382;47.168;16.008;2022-08-03T09:50:57;29.40;68.60
53498;DHT22;39382;47.168;16.008;2022-08-03T09:53:23;29.40;67.70
53498;DHT22;39382;47.168;16.008;2022-08-03T09:55:59;29.40;67.40
53498;DHT22;39382;47.168;16.008;2022-08-03T09:58:29;29.50;68.50
53498;DHT22;39382;47.168;16.008;2022-08-03T10:01:00;29.50;66.50
53498;DHT22;39382;47.168;16.008;2022-08-03T10:03:30;29.60;67.10
53498;DHT22;39382;47.168;16.008;2022-08-03T10:05:57;29.80;67.10
53498;DHT22;39382;47.168;16.008;2022-08-03T10:08:23;29.90;66.30
53498;DHT22;39382;47.168;16.008;2022-08-03T10:10:50;30.00;65.80
53498;DHT22;39382;47.168;16.008;2022-08-03T10:13:20;30.10;64.90
53498;DHT22;39382;47.168;16.008;2022-08-03T10:15:46;30.20;64.20
53498;DHT22;39382;47.168;16.008;2022-08-03T10:18:12;30.20;64.10
53498;DHT22;39382;47.168;16.008;2022-08-03T10:21:06;30.20;64.10
53498;DHT22;39382;47.168;16.008;2022-08-03T10:23:37;30.20;64.50
53498;DHT22;39382;47.168;16.008;2022-08-03T10:26:04;30.30;62.80
53498;DHT22;39382;47.168;16.008;2022-08-03T10:28:38;30.20;64.60
53498;DHT22;39382;47.168;16.008;2022-08-03T10:31:05;30.30;65.20
53498;DHT22;39382;47.168;16.008;2022-08-03T10:33:37;30.40;64.00
53498;DHT22;39382;47.168;16.008;2022-08-03T10:36:06;30.50;64.30
53498;DHT22;39382;47.168;16.008;2022-08-03T10:38:37;30.50;62.80
53498;DHT22;39382;47.168;16.008;2022-08-03T10:41:05;30.60;64.10
53498;DHT22;39382;47.168;16.008;2022-08-03T10:43:44;30.70;61.60
53498;DHT22;39382;47.168;16.008;2022-08-03T10:46:15;30.60;62.70
53498;DHT22;39382;47.168;16.008;2022-08-03T10:48:42;30.40;60.60
53498;DHT22;39382;47.168;16.008;2022-08-03T10:51:08;30.40;63.80
53498;DHT22;39382;47.168;16.008;2022-08-03T10:53:41;30.40;63.30
53498;DHT22;39382;47.168;16.008;2022-08-03T10:59:19;30.80;62.40
53498;DHT22;39382;47.168;16.008;2022-08-03T11:04:15;30.90;61.40
53498;DHT22;39382;47.168;16.008;2022-08-03T11:06:41;31.00;61.80
53498;DHT22;39382;47.168;16.008;2022-08-03T11:09:15;30.90;62.10
53498;DHT22;39382;47.168;16.008;2022-08-03T11:11:43;30.90;61.90
53498;DHT22;39382;47.168;16.008;2022-08-03T11:14:10;31.00;60.70
53498;DHT22;39382;47.168;16.008;2022-08-03T11:17:07;31.00;61.00
53498;DHT22;39382;47.168;16.008;2022-08-03T11:19:48;31.00;60.00
53498;DHT22;39382;47.168;16.008;2022-08-03T11:22:14;31.10;60.20
53498;DHT22;39382;47.168;16.008;2022-08-03T11:40:38;30.20;61.00
53498;DHT22;39382;47.168;16.008;2022-08-03T11:43:48;30.20;61.00
53498;DHT22;39382;47.168;16.008;2022-08-03T11:46:06;30.40;62.20
53498;DHT22;39382;47.168;16.008;2022-08-03T11:48:47;30.60;61.90
53498;DHT22;39382;47.168;16.008;2022-08-03T11:51:27;30.70;62.60
53498;DHT22;39382;47.168;16.008;2022-08-03T11:53:54;30.90;62.80
53498;DHT22;39382;47.168;16.008;2022-08-03T11:56:20;31.00;60.90
53498;DHT22;39382;47.168;16.008;2022-08-03T11:58:47;30.80;61.10
53498;DHT22;39382;47.168;16.008;2022-08-03T12:01:13;30.70;61.20
53498;DHT22;39382;47.168;16.008;2022-08-03T12:03:41;30.50;59.70
53498;DHT22;39382;47.168;16.008;2022-08-03T12:06:12;30.50;60.80
53498;DHT22;39382;47.168;16.008;2022-08-03T12:08:39;30.60;60.60
53498;DHT22;39382;47.168;16.008;2022-08-03T12:11:07;30.70;60.60
53498;DHT22;39382;47.168;16.008;2022-08-03T12:13:44;30.80;60.70
53498;DHT22;39382;47.168;16.008;2022-08-03T12:16:20;31.00;60.90
53498;DHT22;39382;47.168;16.008;2022-08-03T12:19:00;31.00;58.60
53498;DHT22;39382;47.168;16.008;2022-08-03T12:21:26;31.00;59.20
53498;DHT22;39382;47.168;16.008;2022-08-03T12:23:57;31.10;59.10
53498;DHT22;39382;47.168;16.008;2022-08-03T12:26:25;31.10;58.00
53498;DHT22;39382;47.168;16.008;2022-08-03T12:28:51;31.00;60.60
53498;DHT22;39382;47.168;16.008;2022-08-03T12:31:17;31.10;60.10
53498;DHT22;39382;47.168;16.008;2022-08-03T12:36:22;31.20;60.00
53498;DHT22;39382;47.168;16.008;2022-08-03T12:38:56;31.20;60.00
53498;DHT22;39382;47.168;16.008;2022-08-03T12:41:33;31.30;58.50
53498;DHT22;39382;47.168;16.008;2022-08-03T12:44:00;31.30;56.70
53498;DHT22;39382;47.168;16.008;2022-08-03T12:49:11;31.30;58.90
53498;DHT22;39382;47.168;16.008;2022-08-03T12:54:14;31.30;57.80
53498;DHT22;39382;47.168;16.008;2022-08-03T12:57:09;31.20;58.20
53498;DHT22;39382;47.168;16.008;2022-08-03T12:59:40;31.10;61.00
53498;DHT22;39382;47.168;16.008;2022-08-03T13:04:40;31.00;60.70
53498;DHT22;39382;47.168;16.008;2022-08-03T13:07:08;30.90;61.40
53498;DHT22;39382;47.168;16.008;2022-08-03T13:09:51;30.90;61.40
53498;DHT22;39382;47.168;16.008;2022-08-03T13:12:20;31.00;61.10
53498;DHT22;39382;47.168;16.008;2022-08-03T13:14:47;31.00;59.90
53498;DHT22;39382;47.168;16.008;2022-08-03T13:17:15;31.10;59.30
53498;DHT22;39382;47.168;16.008;2022-08-03T13:19:45;31.10;60.40
53498;DHT22;39382;47.168;16.008;2022-08-03T13:22:11;31.20;60.20
53498;DHT22;39382;47.168;16.008;2022-08-03T13:24:37;31.10;59.60
53498;DHT22;39382;47.168;16.008;2022-08-03T13:27:03;31.10;59.80
53498;DHT22;39382;47.168;16.008;2022-08-03T13:29:31;31.00;59.50
53498;DHT22;39382;47.168;16.008;2022-08-03T13:31:56;30.90;58.30
53498;DHT22;39382;47.168;16.008;2022-08-03T13:34:22;31.00;61.00
53498;DHT22;39382;47.168;16.008;2022-08-03T13:36:48;31.10;60.50
53498;DHT22;39382;47.168;16.008;2022-08-03T13:39:13;31.10;60.10
53498;DHT22;39382;47.168;16.008;2022-08-03T13:41:39;31.20;60.60
53498;DHT22;39382;47.168;16.008;2022-08-03T13:44:05;31.30;60.00
53498;DHT22;39382;47.168;16.008;2022-08-03T13:46:30;31.40;59.60
53498;DHT22;39382;47.168;16.008;2022-08-03T13:48:56;31.40;60.30
53498;DHT22;39382;47.168;16.008;2022-08-03T13:51:21;31.50;58.50
53498;DHT22;39382;47.168;16.008;2022-08-03T13:53:48;31.30;57.90
53498;DHT22;39382;47.168;16.008;2022-08-03T13:56:14;31.00;59.40
53498;DHT22;39382;47.168;16.008;2022-08-03T13:58:39;30.60;59.70
53498;DHT22;39382;47.168;16.008;2022-08-03T14:01:05;30.50;61.10
53498;DHT22;39382;47.168;16.008;2022-08-03T14:03:31;30.40;59.70
53498;DHT22;39382;47.168;16.008;2022-08-03T14:05:56;30.60;60.90
53498;DHT22;39382;47.168;16.008;2022-08-03T14:08:22;30.60;61.20
53498;DHT22;39382;47.168;16.008;2022-08-03T14:10:47;30.70;61.20
53498;DHT22;39382;47.168;16.008;2022-08-03T14:13:13;30.60;60.70
53498;DHT22;39382;47.168;16.008;2022-08-03T14:15:40;30.40;61.00
53498;DHT22;39382;47.168;16.008;2022-08-03T14:18:07;30.30;61.30
53498;DHT22;39382;47.168;16.008;2022-08-03T14:20:33;30.00;61.10
53498;DHT22;39382;47.168;16.008;2022-08-03T14:22:59;29.90;62.10
53498;DHT22;39382;47.168;16.008;2022-08-03T14:25:25;29.70;62.00
53498;DHT22;39382;47.168;16.008;2022-08-03T14:27:50;29.60;61.10
53498;DHT22;39382;47.168;16.008;2022-08-03T14:30:16;29.60;61.50
53498;DHT22;39382;47.168;16.008;2022-08-03T14:32:42;29.60;61.80
53498;DHT22;39382;47.168;16.008;2022-08-03T14:35:08;29.70;61.80
53498;DHT22;39382;47.168;16.008;2022-08-03T14:37:34;29.80;61.40
53498;DHT22;39382;47.168;16.008;2022-08-03T14:40:00;29.80;62.50
53498;DHT22;39382;47.168;16.008;2022-08-03T14:42:26;29.80;61.80
53498;DHT22;39382;47.168;16.008;2022-08-03T14:44:51;29.80;63.30
53498;DHT22;39382;47.168;16.008;2022-08-03T14:47:17;29.70;63.70
53498;DHT22;39382;47.168;16.008;2022-08-03T14:49:42;29.60;63.50
53498;DHT22;39382;47.168;16.008;2022-08-03T14:52:08;29.50;63.20
53498;DHT22;39382;47.168;16.008;2022-08-03T14:54:34;29.50;63.40
53498;DHT22;39382;47.168;16.008;2022-08-03T14:57:01;29.40;62.10
53498;DHT22;39382;47.168;16.008;2022-08-03T14:59:27;29.40;63.30
53498;DHT22;39382;47.168;16.008;2022-08-03T15:01:53;29.30;64.10
53498;DHT22;39382;47.168;16.008;2022-08-03T15:04:19;29.30;64.50
53498;DHT22;39382;47.168;16.008;2022-08-03T15:06:45;29.30;64.00
53498;DHT22;39382;47.168;16.008;2022-08-03T15:09:11;29.20;63.50
53498;DHT22;39382;47.168;16.008;2022-08-03T15:11:36;29.20;65.00
53498;DHT22;39382;47.168;16.008;2022-08-03T15:14:03;29.10;66.50
53498;DHT22;39382;47.168;16.008;2022-08-03T15:16:29;29.10;66.80
53498;DHT22;39382;47.168;16.008;2022-08-03T15:18:54;29.20;66.10
53498;DHT22;39382;47.168;16.008;2022-08-03T15:21:20;29.30;66.40
53498;DHT22;39382;47.168;16.008;2022-08-03T15:23:45;29.40;66.70
53498;DHT22;39382;47.168;16.008;2022-08-03T15:26:11;29.50;65.80
53498;DHT22;39382;47.168;16.008;2022-08-03T15:28:37;29.40;64.90
53498;DHT22;39382;47.168;16.008;2022-08-03T15:31:03;29.30;65.80
53498;DHT22;39382;47.168;16.008;2022-08-03T15:33:28;29.30;66.20
53498;DHT22;39382;47.168;16.008;2022-08-03T15:35:55;29.20;66.40
53498;DHT22;39382;47.168;16.008;2022-08-03T15:38:21;29.20;67.30
53498;DHT22;39382;47.168;16.008;2022-08-03T15:40:50;29.10;67.80
53498;DHT22;39382;47.168;16.008;2022-08-03T15:43:19;29.10;67.50
53498;DHT22;39382;47.168;16.008;2022-08-03T15:45:45;29.10;67.50
53498;DHT22;39382;47.168;16.008;2022-08-03T15:48:10;29.00;68.10
53498;DHT22;39382;47.168;16.008;2022-08-03T15:50:36;29.00;68.70
53498;DHT22;39382;47.168;16.008;2022-08-03T15:53:03;28.90;69.50
53498;DHT22;39382;47.168;16.008;2022-08-03T15:55:29;28.90;69.80
53498;DHT22;39382;47.168;16.008;2022-08-03T15:57:55;28.80;70.60
53498;DHT22;39382;47.168;16.008;2022-08-03T16:00:21;28.70;69.50
53498;DHT22;39382;47.168;16.008;2022-08-03T16:02:47;28.70;69.60
53498;DHT22;39382;47.168;16.008;2022-08-03T16:05:12;28.60;70.40
53498;DHT22;39382;47.168;16.008;2022-08-03T16:07:38;28.50;71.50
53498;DHT22;39382;47.168;16.008;2022-08-03T16:10:14;28.40;72.30